Time;durP1;ratioP1;P1;durP2;ratioP2;P2;SDS_P1;SDS_P2;PMS_P1;PMS_P2;Temp;Humidity;BMP_temperature;BMP_pressure;BME280_temperature;BME280_humidity;BME280_pressure;Samples;Min_cycle;Max_cycle;Signal;HPM_P1;HPM_P2
2022/02/06 00:01:12;;;;;;;;;141.00;129.50;10.30;57.40;;;;;;5071563;28;8763;-62
2022/02/06 00:03:38;;;;;;;;;164.50;148.75;11.00;54.90;;;;;;5071352;28;8877;-63
2022/02/06 00:06:04;;;;;;;;;143.75;135.25;11.60;51.80;;;;;;5077451;28;8799;-62
2022/02/06 00:08:30;;;;;;;;;138.25;126.50;12.00;49.60;;;;;;5081711;28;8785;-64
2022/02/06 00:10:56;;;;;;;;;128.50;121.00;12.30;48.50;;;;;;5076735;28;8811;-63
2022/02/06 00:13:22;;;;;;;;;104.00;89.25;12.50;47.80;;;;;;5076731;28;8814;-62
2022/02/06 00:15:47;;;;;;;;;109.00;100.25;12.60;47.00;;;;;;5070905;28;8905;-63
2022/02/06 00:18:13;;;;;;;;;111.75;102.50;12.60;46.70;;;;;;5069502;28;8783;-62
2022/02/06 00:20:49;;;;;;;;;118.25;109.50;12.50;46.40;;;;;;5070130;28;8771;-63
2022/02/06 00:23:17;;;;;;;;;113.25;103.25;12.70;46.60;;;;;;5070270;28;8817;-63
2022/02/06 00:25:59;;;;;;;;;111.00;99.75;12.80;46.20;;;;;;5069865;28;8759;-64
2022/02/06 00:31:23;;;;;;;;;93.25;83.25;13.00;46.30;;;;;;5071375;28;8775;-64
2022/02/06 00:39:11;;;;;;;;;87.25;79.50;13.00;45.30;;;;;;5070968;28;9409;-64
2022/02/06 00:41:37;;;;;;;;;88.75;69.75;13.00;45.20;;;;;;5071058;28;8890;-64
2022/02/06 00:44:05;;;;;;;;;92.00;82.00;13.00;44.60;;;;;;5071025;28;8775;-63
2022/02/06 00:46:32;;;;;;;;;95.75;81.75;13.10;44.40;;;;;;5070682;28;8779;-63
2022/02/06 00:49:01;;;;;;;;;89.00;71.00;13.10;44.60;;;;;;5070020;28;8860;-64
2022/02/06 00:51:38;;;;;;;;;84.50;64.50;13.20;44.40;;;;;;5070413;28;8767;-64
2022/02/06 00:54:04;;;;;;;;;77.50;61.00;13.30;43.90;;;;;;5090916;28;8939;-63
2022/02/06 00:56:30;;;;;;;;;76.75;60.75;13.20;43.40;;;;;;5090820;28;8770;-63
2022/02/06 00:58:56;;;;;;;;;92.75;75.75;13.20;43.30;;;;;;5090611;28;8790;-63
2022/02/06 01:01:22;;;;;;;;;88.25;73.00;12.70;43.70;;;;;;5090724;28;8834;-63
2022/02/06 01:03:48;;;;;;;;;80.75;64.50;12.50;44.60;;;;;;5084650;28;8758;-63
2022/02/06 01:06:14;;;;;;;;;83.25;68.50;12.40;44.30;;;;;;5085403;28;8809;-63
2022/02/06 01:08:40;;;;;;;;;84.50;67.25;12.40;44.60;;;;;;5077017;28;8804;-64
2022/02/06 01:11:09;;;;;;;;;86.50;70.25;12.30;44.90;;;;;;5077025;28;8774;-63
2022/02/06 01:14:06;;;;;;;;;81.75;63.75;12.20;45.40;;;;;;5076921;28;8805;-63
2022/02/06 01:16:29;;;;;;;;;82.50;64.50;12.30;45.00;;;;;;5076350;28;8790;-63
2022/02/06 01:19:00;;;;;;;;;86.25;71.50;12.40;44.70;;;;;;5076794;28;8805;-63
2022/02/06 01:25:00;;;;;;;;;82.00;67.00;12.20;45.10;;;;;;5076860;28;8726;-63
2022/02/06 01:27:07;;;;;;;;;77.25;61.00;12.20;45.20;;;;;;5065864;28;8863;-62
2022/02/06 01:32:22;;;;;;;;;79.00;63.50;12.20;45.00;;;;;;5076669;28;8786;-62
2022/02/06 01:35:28;;;;;;;;;74.75;60.25;12.40;44.80;;;;;;5076605;28;8778;-63
2022/02/06 01:38:10;;;;;;;;;69.75;58.25;12.40;44.60;;;;;;5073396;28;9404;-62
2022/02/06 01:40:40;;;;;;;;;72.25;60.25;12.50;44.00;;;;;;5075303;28;8789;-62
2022/02/06 01:43:12;;;;;;;;;74.50;58.00;12.40;44.50;;;;;;5076480;28;8773;-63
2022/02/06 01:46:07;;;;;;;;;75.75;60.00;12.40;44.40;;;;;;5076634;28;8770;-63
2022/02/06 02:05:27;;;;;;;;;85.00;69.50;12.30;44.40;;;;;;5076190;28;8762;-63
2022/02/06 02:13:15;;;;;;;;;88.00;73.50;12.10;46.10;;;;;;5075838;28;8782;-63
2022/02/06 02:47:39;;;;;;;;;213.00;192.25;11.10;50.50;;;;;;5075273;28;8734;-65
2022/02/06 02:50:12;;;;;;;;;220.75;198.00;10.90;50.50;;;;;;5075332;28;8770;-64
2022/02/06 02:52:53;;;;;;;;;233.00;206.25;10.80;50.20;;;;;;5074923;28;8824;-64
2022/02/06 02:57:52;;;;;;;;;237.75;216.00;10.80;50.70;;;;;;5075060;28;8766;-64
2022/02/06 03:00:26;;;;;;;;;194.00;181.50;10.90;50.30;;;;;;5075115;28;8777;-61
2022/02/06 03:03:00;;;;;;;;;180.50;166.75;10.90;49.60;;;;;;5074819;28;8794;-61
2022/02/06 03:05:26;;;;;;;;;168.75;154.75;10.90;49.30;;;;;;5075060;28;9532;-62
2022/02/06 03:07:53;;;;;;;;;172.25;149.25;11.00;49.10;;;;;;5074752;28;8786;-62
2022/02/06 03:10:19;;;;;;;;;170.50;158.75;11.00;49.00;;;;;;5074699;28;8774;-62
2022/02/06 03:12:49;;;;;;;;;252.75;231.75;11.10;49.10;;;;;;5074692;28;8762;-64
2022/02/06 03:15:34;;;;;;;;;254.75;233.25;11.00;49.20;;;;;;5074725;28;8774;-62
2022/02/06 03:18:03;;;;;;;;;252.00;227.25;10.80;49.20;;;;;;5074984;28;8758;-63
2022/02/06 03:20:30;;;;;;;;;301.50;262.75;10.70;49.70;;;;;;5074802;28;9428;-62
2022/02/06 03:23:00;;;;;;;;;287.00;265.75;10.40;50.20;;;;;;5074802;28;8852;-62
2022/02/06 03:25:26;;;;;;;;;308.00;271.50;10.40;51.00;;;;;;5074544;28;8777;-63
2022/02/06 03:27:53;;;;;;;;;267.25;245.50;10.40;51.10;;;;;;5074534;28;8858;-62
2022/02/06 03:30:21;;;;;;;;;272.50;239.75;10.50;50.70;;;;;;5074532;28;8750;-64
2022/02/06 03:32:47;;;;;;;;;247.25;223.00;10.50;50.50;;;;;;5074727;28;8939;-63
2022/02/06 03:35:13;;;;;;;;;244.75;218.25;10.50;50.20;;;;;;5074605;28;8766;-63
2022/02/06 03:37:41;;;;;;;;;251.25;222.25;10.60;50.10;;;;;;5074343;28;8797;-62
2022/02/06 03:40:17;;;;;;;;;241.50;215.00;10.50;49.90;;;;;;5074420;28;8758;-64
2022/02/06 03:42:54;;;;;;;;;221.50;202.75;10.50;50.10;;;;;;5074550;28;8793;-62
2022/02/06 03:45:21;;;;;;;;;209.25;184.50;10.50;50.20;;;;;;5074593;28;8778;-62
2022/02/06 03:47:53;;;;;;;;;225.50;194.25;10.60;50.00;;;;;;5074294;28;8769;-62
2022/02/06 03:50:19;;;;;;;;;232.00;208.25;10.50;49.90;;;;;;5074276;28;8773;-63
2022/02/06 03:52:48;;;;;;;;;194.75;177.25;10.40;50.10;;;;;;5074106;28;8859;-63
2022/02/06 03:55:21;;;;;;;;;200.25;177.75;10.40;50.00;;;;;;5074512;28;8804;-63
2022/02/06 03:57:49;;;;;;;;;153.75;141.50;10.40;49.90;;;;;;5074462;28;8761;-62
2022/02/06 04:00:16;;;;;;;;;214.75;189.50;10.50;49.70;;;;;;5074450;28;8876;-63
2022/02/06 04:02:42;;;;;;;;;222.50;204.00;10.50;49.70;;;;;;5074126;28;8782;-65
2022/02/06 04:05:09;;;;;;;;;204.25;185.00;10.50;49.50;;;;;;5074086;28;8754;-63
2022/02/06 04:07:35;;;;;;;;;219.00;195.50;10.40;49.80;;;;;;5074076;28;8750;-63
2022/02/06 04:10:01;;;;;;;;;196.75;188.25;10.20;50.00;;;;;;5074310;28;8819;-62
2022/02/06 04:12:29;;;;;;;;;192.75;180.25;10.10;50.50;;;;;;5074350;28;9476;-63
2022/02/06 04:15:02;;;;;;;;;153.25;135.25;10.10;50.70;;;;;;5074027;28;9458;-64
2022/02/06 04:17:35;;;;;;;;;153.00;140.25;10.00;51.10;;;;;;5074071;28;8846;-64
2022/02/06 04:20:01;;;;;;;;;121.25;110.25;10.00;51.10;;;;;;5057089;28;8789;-64
2022/02/06 04:22:27;;;;;;;;;102.25;85.50;10.00;51.20;;;;;;5074175;28;8853;-64
2022/02/06 04:24:52;;;;;;;;;79.25;64.75;9.90;51.30;;;;;;5074315;28;8746;-64
2022/02/06 04:27:18;;;;;;;;;92.00;78.75;9.90;51.50;;;;;;5073931;28;8778;-65
2022/02/06 04:29:46;;;;;;;;;88.50;71.25;9.90;51.30;;;;;;5073949;28;8841;-64
2022/02/06 04:32:12;;;;;;;;;87.50;71.25;9.90;51.30;;;;;;5074078;28;9447;-64
2022/02/06 04:34:38;;;;;;;;;89.00;74.75;9.80;51.00;;;;;;5073855;28;8862;-64
2022/02/06 04:39:54;;;;;;;;;81.75;66.25;9.80;51.70;;;;;;5075622;28;8766;-64
2022/02/06 05:26:54;;;;;;;;;73.50;55.25;9.50;49.70;;;;;;5062099;28;8884;-63
2022/02/06 05:29:33;;;;;;;;;80.25;63.00;9.50;49.40;;;;;;5076758;28;8765;-63
2022/02/06 05:32:16;;;;;;;;;80.00;62.50;9.50;50.10;;;;;;5076790;28;8782;-62
2022/02/06 05:34:42;;;;;;;;;79.25;64.00;9.40;50.20;;;;;;5076698;28;8769;-63
2022/02/06 05:37:08;;;;;;;;;77.75;60.75;9.50;50.10;;;;;;5076873;28;8838;-63
2022/02/06 05:39:34;;;;;;;;;76.25;61.00;9.40;50.00;;;;;;5076631;28;8777;-63
2022/02/06 05:42:00;;;;;;;;;75.00;60.00;9.30;50.30;;;;;;5076508;28;8786;-62
2022/02/06 05:44:25;;;;;;;;;68.50;56.75;9.30;50.40;;;;;;5076769;28;8766;-63
2022/02/06 05:46:51;;;;;;;;;71.00;59.25;9.20;50.40;;;;;;5076468;28;8773;-63
2022/02/06 05:49:17;;;;;;;;;74.50;59.25;9.20;50.60;;;;;;5076355;28;8769;-63
2022/02/06 05:51:44;;;;;;;;;66.75;55.00;9.00;51.30;;;;;;5076215;28;8786;-62
2022/02/06 05:54:10;;;;;;;;;70.50;58.25;9.00;51.30;;;;;;5076555;28;8769;-63
2022/02/06 05:56:36;;;;;;;;;66.75;53.75;9.00;51.60;;;;;;5076204;28;8838;-62
2022/02/06 05:59:03;;;;;;;;;63.00;53.00;9.10;51.40;;;;;;5076192;28;8782;-63
2022/02/06 06:01:29;;;;;;;;;72.75;58.50;9.10;51.20;;;;;;5076366;28;8762;-62
2022/02/06 06:03:56;;;;;;;;;71.25;60.00;9.20;50.90;;;;;;5058386;28;8806;-63
2022/02/06 06:06:21;;;;;;;;;79.50;64.25;9.30;51.00;;;;;;5076029;28;8894;-63
2022/02/06 06:08:47;;;;;;;;;97.00;84.50;9.40;50.70;;;;;;5075730;28;8888;-63
2022/02/06 06:11:13;;;;;;;;;141.50;130.75;9.40;50.50;;;;;;5075908;28;8751;-63
2022/02/06 06:13:39;;;;;;;;;132.75;122.25;9.40;51.10;;;;;;5076097;28;8793;-62
2022/02/06 06:16:07;;;;;;;;;136.25;127.75;9.40;51.00;;;;;;5075997;28;9427;-63
2022/02/06 06:18:33;;;;;;;;;114.50;100.50;9.40;50.80;;;;;;5075732;28;8843;-63
2022/02/06 06:21:00;;;;;;;;;126.25;117.00;9.50;50.30;;;;;;5075956;28;8778;-62
2022/02/06 06:23:26;;;;;;;;;128.25;120.75;9.50;50.30;;;;;;5075919;28;8825;-63
2022/02/06 06:25:52;;;;;;;;;134.75;122.50;9.40;50.40;;;;;;5075827;28;8762;-62
2022/02/06 06:28:18;;;;;;;;;120.25;111.25;9.40;50.70;;;;;;5075550;28;8789;-63
2022/02/06 06:30:45;;;;;;;;;126.25;117.00;9.40;50.80;;;;;;5075676;28;8773;-63
2022/02/06 06:33:10;;;;;;;;;143.75;123.50;9.30;50.70;;;;;;5075481;28;8788;-63
2022/02/06 06:35:37;;;;;;;;;174.00;158.50;9.20;51.20;;;;;;5075635;28;8843;-63
2022/02/06 06:38:03;;;;;;;;;160.50;142.00;9.20;51.50;;;;;;5075380;28;8777;-63
2022/02/06 06:40:30;;;;;;;;;168.25;147.25;9.30;51.30;;;;;;5075493;28;8862;-63
2022/02/06 06:42:56;;;;;;;;;168.75;152.75;9.40;51.00;;;;;;5075155;28;8797;-62
2022/02/06 06:45:23;;;;;;;;;150.50;140.00;9.50;51.00;;;;;;5075507;28;8790;-64
2022/02/06 06:47:52;;;;;;;;;158.00;144.00;9.50;50.70;;;;;;5075186;28;8758;-64
2022/02/06 06:50:18;;;;;;;;;159.50;134.00;9.70;50.50;;;;;;5075566;28;8757;-64
2022/02/06 06:52:46;;;;;;;;;159.25;148.50;9.80;50.10;;;;;;5075049;28;8850;-64
2022/02/06 06:55:15;;;;;;;;;153.25;137.25;9.90;49.90;;;;;;5075304;28;8765;-64
2022/02/06 06:57:48;;;;;;;;;153.75;142.00;9.90;49.50;;;;;;5074957;28;8839;-65
2022/02/06 07:00:25;;;;;;;;;159.25;135.75;9.90;49.40;;;;;;5075136;28;8774;-63
2022/02/06 07:02:51;;;;;;;;;172.75;161.00;10.00;49.30;;;;;;5074316;28;8814;-62
2022/02/06 07:05:17;;;;;;;;;170.75;159.25;10.00;50.00;;;;;;5074794;28;8900;-62
2022/02/06 07:07:43;;;;;;;;;170.25;161.25;9.90;50.00;;;;;;5075052;28;8858;-62
2022/02/06 07:10:09;;;;;;;;;163.50;154.00;10.00;50.10;;;;;;5074804;28;8758;-64
2022/02/06 07:12:35;;;;;;;;;190.00;177.75;10.00;50.20;;;;;;5075001;28;8782;-62
2022/02/06 07:15:01;;;;;;;;;216.25;197.25;10.00;50.00;;;;;;5075471;28;8778;-64
2022/02/06 07:17:27;;;;;;;;;199.00;191.50;10.00;49.80;;;;;;5080150;28;8893;-64
2022/02/06 07:19:53;;;;;;;;;222.25;203.75;10.00;50.60;;;;;;5074553;28;8788;-64
2022/02/06 07:22:20;;;;;;;;;211.00;190.00;10.10;50.50;;;;;;5084731;28;8954;-62
2022/02/06 07:24:48;;;;;;;;;215.25;192.75;10.10;49.90;;;;;;5089075;28;8808;-62
2022/02/06 07:27:28;;;;;;;;;190.50;170.75;10.20;49.10;;;;;;5081707;28;8852;-63
2022/02/06 07:29:56;;;;;;;;;142.50;131.25;10.10;49.00;;;;;;5093188;28;8811;-62
2022/02/06 07:32:23;;;;;;;;;121.50;114.00;10.10;48.70;;;;;;5075017;28;8776;-62
2022/02/06 07:34:49;;;;;;;;;142.25;134.25;10.20;48.30;;;;;;5094853;28;8771;-63
2022/02/06 07:37:15;;;;;;;;;173.50;162.75;10.40;48.20;;;;;;5094674;28;8780;-62
2022/02/06 07:39:41;;;;;;;;;191.00;170.00;10.50;48.30;;;;;;5094566;28;8772;-62
2022/02/06 07:42:09;;;;;;;;;201.75;183.75;10.60;47.90;;;;;;5094492;28;8803;-62
2022/02/06 07:44:36;;;;;;;;;168.25;151.50;10.70;48.00;;;;;;5079300;28;8770;-62
2022/02/06 07:47:13;;;;;;;;;176.25;162.00;10.80;47.90;;;;;;5074241;28;8761;-64
2022/02/06 07:49:39;;;;;;;;;166.75;150.25;10.90;47.70;;;;;;5074336;28;8765;-64
2022/02/06 07:52:05;;;;;;;;;152.00;138.00;11.00;47.30;;;;;;5073983;28;8876;-65
2022/02/06 07:54:31;;;;;;;;;110.00;104.50;11.10;47.20;;;;;;5074495;28;8758;-62
2022/02/06 07:56:57;;;;;;;;;116.50;103.75;11.10;47.00;;;;;;5074438;28;9474;-63
2022/02/06 07:59:22;;;;;;;;;108.00;96.50;11.20;46.80;;;;;;5074385;28;9435;-63
2022/02/06 08:01:49;;;;;;;;;104.25;94.25;11.20;46.80;;;;;;5082306;28;8886;-63
2022/02/06 08:04:14;;;;;;;;;106.00;95.75;11.20;46.50;;;;;;5074650;28;9423;-62
2022/02/06 08:06:40;;;;;;;;;97.50;88.25;11.20;46.70;;;;;;5074115;28;8852;-62
2022/02/06 08:09:06;;;;;;;;;93.00;81.00;11.30;46.70;;;;;;5074367;28;8770;-62
2022/02/06 08:11:36;;;;;;;;;91.25;80.00;11.20;46.70;;;;;;5077465;28;9438;-63
2022/02/06 08:14:01;;;;;;;;;93.25;80.75;11.20;47.00;;;;;;5095417;28;8775;-62
2022/02/06 08:16:27;;;;;;;;;96.25;90.00;11.20;47.20;;;;;;5098387;28;8783;-62
2022/02/06 08:18:54;;;;;;;;;96.00;79.25;11.40;47.10;;;;;;5091304;28;8778;-62
2022/02/06 08:21:20;;;;;;;;;92.00;79.00;11.50;46.90;;;;;;5078173;28;9469;-63
2022/02/06 08:23:46;;;;;;;;;89.75;74.25;11.60;46.70;;;;;;5077776;28;8790;-62
2022/02/06 08:26:12;;;;;;;;;88.50;71.25;11.60;46.70;;;;;;5077874;28;8750;-63
2022/02/06 08:28:37;;;;;;;;;76.25;60.00;11.70;46.30;;;;;;5077925;28;8793;-63
2022/02/06 08:31:06;;;;;;;;;75.25;59.25;11.70;45.90;;;;;;5078028;28;8750;-62
2022/02/06 08:33:32;;;;;;;;;75.50;60.25;11.80;45.80;;;;;;5090091;28;8816;-62
2022/02/06 08:35:59;;;;;;;;;78.25;60.50;12.00;45.80;;;;;;5097934;28;8771;-63
2022/02/06 08:38:25;;;;;;;;;78.25;59.50;12.00;45.80;;;;;;5096846;28;8796;-62
2022/02/06 08:40:52;;;;;;;;;70.50;56.75;12.10;45.80;;;;;;5098098;28;8762;-63
2022/02/06 08:43:19;;;;;;;;;73.75;56.75;12.10;46.00;;;;;;5097812;28;8791;-69
2022/02/06 08:45:44;;;;;;;;;69.50;55.00;12.20;46.30;;;;;;5082721;28;8883;-69
2022/02/06 08:48:10;;;;;;;;;65.50;52.00;12.20;46.40;;;;;;5083463;28;8762;-70
2022/02/06 08:50:36;;;;;;;;;73.25;58.50;12.40;46.10;;;;;;5084578;28;8825;-71
2022/02/06 08:53:02;;;;;;;;;68.75;54.50;12.60;45.70;;;;;;5083199;28;8845;-72
2022/02/06 08:55:29;;;;;;;;;61.25;50.25;12.80;45.50;;;;;;5085907;28;8781;-70
2022/02/06 08:57:56;;;;;;;;;66.25;55.00;12.80;45.40;;;;;;5086716;28;8843;-70
2022/02/06 09:00:23;;;;;;;;;65.00;48.75;12.90;45.60;;;;;;5083522;28;8886;-67
2022/02/06 09:02:50;;;;;;;;;55.50;47.25;13.00;45.70;;;;;;5079887;28;8798;-68
2022/02/06 09:05:17;;;;;;;;;58.75;47.00;13.00;46.60;;;;;;5061825;28;8841;-66
2022/02/06 09:07:44;;;;;;;;;59.00;48.50;13.10;46.30;;;;;;5085602;28;8760;-73
2022/02/06 09:10:13;;;;;;;;;57.25;46.75;13.20;46.30;;;;;;5084779;28;8780;-69
2022/02/06 09:12:44;;;;;;;;;50.50;42.00;13.40;45.50;;;;;;5088050;28;8837;-65
2022/02/06 09:15:14;;;;;;;;;36.25;34.00;13.40;44.90;;;;;;5097157;28;8756;-70
2022/02/06 09:17:41;;;;;;;;;48.25;40.00;13.40;44.50;;;;;;5097206;28;8770;-69
2022/02/06 09:20:07;;;;;;;;;37.50;34.75;13.50;43.40;;;;;;5097051;28;8798;-65
2022/02/06 09:22:33;;;;;;;;;34.75;31.50;13.70;42.60;;;;;;5097115;28;8815;-72
2022/02/06 09:24:59;;;;;;;;;39.00;35.75;13.70;41.70;;;;;;5078904;28;8775;-68
2022/02/06 09:27:24;;;;;;;;;44.75;39.00;13.70;41.50;;;;;;5085957;28;8814;-68
2022/02/06 09:29:50;;;;;;;;;41.00;37.00;13.70;42.20;;;;;;5093949;28;8764;-65
2022/02/06 09:37:10;;;;;;;;;48.50;42.00;14.00;41.20;;;;;;5076640;28;8757;-62
2022/02/06 09:39:40;;;;;;;;;40.50;36.75;14.10;41.20;;;;;;5091112;28;8784;-63
2022/02/06 09:42:08;;;;;;;;;41.75;37.75;14.30;41.10;;;;;;5096746;28;9488;-63
2022/02/06 09:44:34;;;;;;;;;34.25;33.25;14.40;40.40;;;;;;5097014;28;8802;-65
2022/02/06 09:47:01;;;;;;;;;31.00;26.75;14.40;40.50;;;;;;5096921;28;9425;-70
2022/02/06 09:49:29;;;;;;;;;24.25;24.00;14.10;40.00;;;;;;5096667;28;8782;-64
2022/02/06 09:51:55;;;;;;;;;37.00;32.00;14.20;39.70;;;;;;5096567;28;8934;-64
2022/02/06 09:54:23;;;;;;;;;30.00;28.25;14.30;39.60;;;;;;5087772;28;8793;-61
2022/02/06 09:56:54;;;;;;;;;34.00;31.50;14.50;39.40;;;;;;5076438;28;8766;-62
2022/02/06 09:59:21;;;;;;;;;36.50;35.25;14.60;39.30;;;;;;5076259;28;8846;-65
2022/02/06 10:01:53;;;;;;;;;36.25;31.50;14.70;39.00;;;;;;5078302;28;8877;-65
2022/02/06 10:04:25;;;;;;;;;30.00;30.00;14.90;39.00;;;;;;5086838;28;8810;-65
2022/02/06 10:07:01;;;;;;;;;39.50;35.00;15.00;37.80;;;;;;5085328;28;8797;-68
2022/02/06 10:09:34;;;;;;;;;38.75;34.75;15.10;39.00;;;;;;5085940;28;8777;-67
2022/02/06 10:12:01;;;;;;;;;37.00;34.75;15.20;38.00;;;;;;5084255;28;8779;-71
2022/02/06 10:14:29;;;;;;;;;47.00;38.50;15.30;37.90;;;;;;5096145;28;8806;-72
2022/02/06 10:16:55;;;;;;;;;44.75;35.00;15.40;38.00;;;;;;5094908;28;8772;-72
2022/02/06 10:19:21;;;;;;;;;41.25;34.00;15.70;36.90;;;;;;5083961;28;8809;-74
2022/02/06 10:21:47;;;;;;;;;46.75;37.00;15.90;36.60;;;;;;5082484;28;8785;-69
2022/02/06 10:24:31;;;;;;;;;35.75;32.50;16.10;36.20;;;;;;5058843;28;8794;-70
2022/02/06 10:29:43;;;;;;;;;43.25;35.75;16.70;31.60;;;;;;5079408;28;8744;-65
2022/02/06 10:32:16;;;;;;;;;37.50;34.25;17.30;31.60;;;;;;5073459;28;8770;-69
2022/02/06 10:34:43;;;;;;;;;33.67;30.00;17.60;31.20;;;;;;5076375;28;8765;-68
2022/02/06 10:37:16;;;;;;;;;32.67;31.33;18.50;30.20;;;;;;5076452;28;8794;-68
2022/02/06 10:40:04;;;;;;;;;35.00;32.33;18.80;28.90;;;;;;5073447;28;8789;-71
2022/02/06 10:42:32;;;;;;;;;28.67;25.67;20.00;27.60;;;;;;5076522;28;8845;-70
2022/02/06 10:45:12;;;;;;;;;25.67;25.33;23.00;24.80;;;;;;5077567;28;8738;-73
2022/02/06 10:47:38;;;;;;;;;24.33;24.33;24.70;22.80;;;;;;5074282;28;8754;-70
2022/02/06 10:50:14;;;;;;;;;30.67;29.33;24.50;22.40;;;;;;5080051;28;9369;-69
2022/02/06 10:52:41;;;;;;;;;32.33;31.33;26.20;21.70;;;;;;5070990;28;8821;-69
2022/02/06 10:55:08;;;;;;;;;29.33;29.33;27.20;21.00;;;;;;5073713;28;8746;-70
2022/02/06 10:57:36;;;;;;;;;35.00;33.67;25.70;20.60;;;;;;5073859;28;8750;-71
2022/02/06 11:00:06;;;;;;;;;22.00;22.00;26.10;21.70;;;;;;5081353;28;8766;-70
2022/02/06 11:02:57;;;;;;;;;22.00;22.00;26.80;20.30;;;;;;5073366;28;11469;-75
2022/02/06 11:05:33;;;;;;;;;35.67;32.67;29.50;19.40;;;;;;5076685;28;11533;-72
2022/02/06 11:08:01;;;;;;;;;34.67;32.67;31.70;18.60;;;;;;5075349;28;9404;-73
2022/02/06 11:10:33;;;;;;;;;19.75;19.75;33.10;17.60;;;;;;5075761;28;8769;-71
2022/02/06 11:13:02;;;;;;;;;19.50;19.50;33.90;16.60;;;;;;5075911;28;11506;-73
2022/02/06 11:15:37;;;;;;;;;31.67;30.67;34.80;16.30;;;;;;5073188;28;11446;-71
2022/02/06 11:18:23;;;;;;;;;32.67;31.33;33.80;16.10;;;;;;5073156;28;11435;-76
2022/02/06 11:21:07;;;;;;;;;24.50;24.50;34.00;16.10;;;;;;5071730;28;11445;-69
2022/02/06 11:23:39;;;;;;;;;29.33;29.33;34.20;15.80;;;;;;5075444;28;11621;-69
2022/02/06 11:26:13;;;;;;;;;24.50;24.50;35.40;15.90;;;;;;5078087;28;12160;-72
2022/02/06 11:28:40;;;;;;;;;25.50;25.50;36.00;15.20;;;;;;5073783;28;11451;-72
2022/02/06 11:31:06;;;;;;;;;23.00;23.00;36.30;15.00;;;;;;5074614;28;11468;-69
2022/02/06 11:33:33;;;;;;;;;19.25;19.25;35.10;14.90;;;;;;5075303;28;11429;-67
2022/02/06 11:36:05;;;;;;;;;26.33;26.33;34.60;15.10;;;;;;5072537;28;11429;-67
2022/02/06 11:45:16;;;;;;;;;17.00;17.00;38.10;14.40;;;;;;5083995;28;11462;-66
2022/02/06 11:47:44;;;;;;;;;16.75;16.75;38.60;14.10;;;;;;5080884;28;11460;-65
2022/02/06 11:50:12;;;;;;;;;18.50;18.50;38.60;14.10;;;;;;5075051;28;11466;-65
2022/02/06 11:53:00;;;;;;;;;21.25;21.25;38.60;13.30;;;;;;5093944;28;11524;-65
2022/02/06 11:55:39;;;;;;;;;22.25;22.25;39.00;13.50;;;;;;5080521;28;11587;-68
2022/02/06 11:58:25;;;;;;;;;20.75;20.75;40.20;13.60;;;;;;5085875;28;11490;-67
2022/02/06 12:01:06;;;;;;;;;32.00;30.67;38.50;13.20;;;;;;5079131;28;11446;-68
2022/02/06 12:04:06;;;;;;;;;21.75;21.75;39.60;13.70;;;;;;5081537;28;11450;-67
2022/02/06 12:06:46;;;;;;;;;25.50;25.50;39.70;12.60;;;;;;5071083;28;11482;-67
2022/02/06 12:09:14;;;;;;;;;25.50;25.50;41.50;13.00;;;;;;5087922;28;11447;-68
2022/02/06 12:11:40;;;;;;;;;19.00;19.00;42.10;12.40;;;;;;5086054;28;11452;-67
2022/02/06 12:14:12;;;;;;;;;28.25;27.25;41.30;11.90;;;;;;5082460;28;12189;-65
2022/02/06 12:16:56;;;;;;;;;16.00;16.00;42.30;12.30;;;;;;5080018;28;8774;-65
2022/02/06 12:19:31;;;;;;;;;23.50;23.50;43.30;11.80;;;;;;5078008;28;12113;-65
2022/02/06 12:22:17;;;;;;;;;21.50;21.50;44.00;11.80;;;;;;5084091;28;11497;-67
2022/02/06 12:24:43;;;;;;;;;23.50;23.50;43.80;11.20;;;;;;5084307;28;11478;-65
2022/02/06 12:27:23;;;;;;;;;18.00;18.00;43.40;11.30;;;;;;5092312;28;11455;-67
2022/02/06 12:29:56;;;;;;;;;16.00;16.00;43.30;11.30;;;;;;5079966;28;8865;-67
2022/02/06 12:32:39;;;;;;;;;18.25;18.25;42.80;11.00;;;;;;5074766;28;11465;-68
2022/02/06 12:37:57;;;;;;;;;22.75;22.75;42.60;11.10;;;;;;5081748;28;12230;-66
2022/02/06 12:40:25;;;;;;;;;17.25;17.25;42.60;12.20;;;;;;5079376;28;12123;-67
2022/02/06 12:42:59;;;;;;;;;14.00;14.00;42.30;11.30;;;;;;5085419;28;11426;-65
2022/02/06 12:45:26;;;;;;;;;14.00;14.00;41.30;11.00;;;;;;5080610;28;11669;-67
2022/02/06 12:47:57;;;;;;;;;18.25;18.25;41.00;11.20;;;;;;5063797;28;11463;-67
2022/02/06 12:50:30;;;;;;;;;15.50;15.50;42.00;11.30;;;;;;5088560;28;11449;-67
2022/02/06 12:52:57;;;;;;;;;15.00;15.00;42.80;10.80;;;;;;5083578;28;11489;-65
2022/02/06 12:55:29;;;;;;;;;20.00;20.00;43.30;11.00;;;;;;5084896;28;11450;-67
2022/02/06 12:57:56;;;;;;;;;21.50;21.50;43.40;10.70;;;;;;5093998;28;11509;-65
2022/02/06 13:00:37;;;;;;;;;21.00;21.00;43.40;10.70;;;;;;5094467;28;11431;-66
2022/02/06 13:03:25;;;;;;;;;27.33;27.33;43.00;10.80;;;;;;5085722;28;11465;-65
2022/02/06 13:06:02;;;;;;;;;20.00;20.00;42.50;11.10;;;;;;5082735;28;12320;-67
2022/02/06 13:08:29;;;;;;;;;17.25;17.25;42.80;10.80;;;;;;5059710;28;11462;-66
2022/02/06 13:11:07;;;;;;;;;21.75;21.75;41.60;10.70;;;;;;5084051;28;11457;-67
2022/02/06 13:13:40;;;;;;;;;22.50;22.50;41.80;10.90;;;;;;5093152;28;11464;-65
2022/02/06 13:21:36;;;;;;;;;15.75;15.75;43.60;10.60;;;;;;5082322;28;11562;-65
2022/02/06 13:29:53;;;;;;;;;15.00;15.00;43.50;10.10;;;;;;5048402;28;8797;-66
2022/02/06 13:32:36;;;;;;;;;10.00;10.00;42.90;10.30;;;;;;5087061;28;11529;-67
2022/02/06 13:37:48;;;;;;;;;9.50;9.50;40.50;11.00;;;;;;5093007;28;11395;-65
2022/02/06 13:40:20;;;;;;;;;12.50;12.50;41.30;11.40;;;;;;5081830;28;11450;-67
2022/02/06 13:43:13;;;;;;;;;12.00;12.00;42.00;10.90;;;;;;5084641;28;12109;-66
2022/02/06 13:45:41;;;;;;;;;20.00;20.00;42.20;10.80;;;;;;5081809;28;12260;-68
2022/02/06 13:48:13;;;;;;;;;19.00;18.25;42.40;10.80;;;;;;5086468;28;11496;-66
2022/02/06 13:50:45;;;;;;;;;12.25;12.25;42.30;10.60;;;;;;5081695;28;11570;-64
2022/02/06 13:53:23;;;;;;;;;14.75;14.75;42.10;11.00;;;;;;5096111;28;11510;-69
2022/02/06 13:55:56;;;;;;;;;12.00;12.00;41.50;10.90;;;;;;5096562;28;11547;-69
2022/02/06 13:58:24;;;;;;;;;13.00;13.00;40.30;11.00;;;;;;5084862;28;12083;-67
2022/02/06 14:01:02;;;;;;;;;13.00;13.00;40.20;11.70;;;;;;5088023;28;11440;-66
2022/02/06 14:03:50;;;;;;;;;17.25;17.25;40.50;11.20;;;;;;5090182;28;11525;-66
2022/02/06 14:06:24;;;;;;;;;7.75;7.75;40.90;11.10;;;;;;5083007;28;11445;-68
2022/02/06 14:09:13;;;;;;;;;11.50;11.50;40.50;10.60;;;;;;5083182;28;11457;-65
2022/02/06 14:12:03;;;;;;;;;7.25;7.25;40.30;11.10;;;;;;5083459;28;12098;-70
2022/02/06 14:14:31;;;;;;;;;8.25;8.25;39.40;11.00;;;;;;5090788;28;11412;-65
2022/02/06 14:16:59;;;;;;;;;10.50;10.50;39.30;11.50;;;;;;5083828;28;11420;-66
2022/02/06 14:19:44;;;;;;;;;8.75;8.75;38.10;11.50;;;;;;5086829;28;11540;-68
2022/02/06 14:22:14;;;;;;;;;8.00;8.00;37.70;12.10;;;;;;5083993;28;11498;-67
2022/02/06 14:24:48;;;;;;;;;10.50;10.50;37.60;12.40;;;;;;5083618;28;11561;-65
2022/02/06 14:27:30;;;;;;;;;17.50;17.50;37.80;12.40;;;;;;5083952;28;11435;-68
2022/02/06 14:29:58;;;;;;;;;13.00;13.00;37.30;12.90;;;;;;5075416;28;11450;-65
2022/02/06 14:32:24;;;;;;;;;15.00;15.00;35.90;12.60;;;;;;5094293;28;12206;-67
2022/02/06 14:34:57;;;;;;;;;11.00;11.00;34.00;13.80;;;;;;5081332;28;11517;-63
2022/02/06 14:37:25;;;;;;;;;10.00;10.00;32.20;14.50;;;;;;5095909;28;8764;-64
2022/02/06 14:40:04;;;;;;;;;18.25;18.25;30.60;15.30;;;;;;5095781;28;11496;-66
2022/02/06 14:42:31;;;;;;;;;19.00;17.75;29.30;16.80;;;;;;5095219;28;11576;-65
2022/02/06 14:45:10;;;;;;;;;22.00;22.00;28.20;17.30;;;;;;5095323;28;11462;-67
2022/02/06 14:47:37;;;;;;;;;20.33;20.33;27.20;18.60;;;;;;5095574;28;8763;-66
2022/02/06 14:50:17;;;;;;;;;19.33;19.33;26.50;18.90;;;;;;5095315;28;8772;-65
2022/02/06 14:52:44;;;;;;;;;11.00;11.00;25.90;19.30;;;;;;5094862;28;11500;-67
2022/02/06 14:55:11;;;;;;;;;15.00;15.00;25.30;19.50;;;;;;5095313;28;11420;-65
2022/02/06 14:57:37;;;;;;;;;15.33;15.33;24.90;20.60;;;;;;5095570;28;8772;-65
2022/02/06 15:00:08;;;;;;;;;19.67;19.67;24.40;21.20;;;;;;5095213;28;8768;-67
2022/02/06 15:02:34;;;;;;;;;20.00;20.00;24.10;22.00;;;;;;5095269;28;8843;-67
2022/02/06 15:05:01;;;;;;;;;18.67;18.67;23.90;21.30;;;;;;5095248;28;8768;-68
2022/02/06 15:07:28;;;;;;;;;24.33;24.00;23.80;21.30;;;;;;5095312;28;9437;-65
2022/02/06 15:09:55;;;;;;;;;19.67;19.67;23.60;21.20;;;;;;5095015;28;8792;-66
2022/02/06 15:12:21;;;;;;;;;19.67;19.67;23.50;22.60;;;;;;5095259;28;8815;-67
2022/02/06 15:14:47;;;;;;;;;21.67;21.67;23.30;23.40;;;;;;5095263;28;9661;-67